sensor_id;sensor_type;location;lat;lon;timestamp;P1;durP1;ratioP1;P2;durP2;ratioP2
10851;SDS011;5479;52.046;6.314;2024-03-02T00:00:23;2.93;;;1.70;;
10851;SDS011;5479;52.046;6.314;2024-03-02T00:02:51;3.17;;;1.60;;
10851;SDS011;5479;52.046;6.314;2024-03-02T00:05:21;3.10;;;1.60;;
10851;SDS011;5479;52.046;6.314;2024-03-02T00:07:52;2.67;;;1.60;;
10851;SDS011;5479;52.046;6.314;2024-03-02T00:10:21;2.80;;;1.50;;
10851;SDS011;5479;52.046;6.314;2024-03-02T00:12:51;2.70;;;1.57;;
10851;SDS011;5479;52.046;6.314;2024-03-02T00:15:25;3.30;;;1.67;;
10851;SDS011;5479;52.046;6.314;2024-03-02T00:17:57;3.33;;;1.50;;
10851;SDS011;5479;52.046;6.314;2024-03-02T00:20:25;3.43;;;1.80;;
10851;SDS011;5479;52.046;6.314;2024-03-02T00:23:01;3.40;;;1.70;;
10851;SDS011;5479;52.046;6.314;2024-03-02T00:25:36;2.20;;;1.37;;
10851;SDS011;5479;52.046;6.314;2024-03-02T00:28:04;3.40;;;1.53;;
10851;SDS011;5479;52.046;6.314;2024-03-02T00:30:45;2.80;;;1.57;;
10851;SDS011;5479;52.046;6.314;2024-03-02T00:33:18;2.93;;;1.50;;
10851;SDS011;5479;52.046;6.314;2024-03-02T00:35:46;2.57;;;1.70;;
10851;SDS011;5479;52.046;6.314;2024-03-02T00:38:14;3.30;;;1.60;;
10851;SDS011;5479;52.046;6.314;2024-03-02T00:40:43;3.60;;;1.70;;
10851;SDS011;5479;52.046;6.314;2024-03-02T00:43:17;2.97;;;1.50;;
10851;SDS011;5479;52.046;6.314;2024-03-02T00:45:52;3.00;;;1.67;;
10851;SDS011;5479;52.046;6.314;2024-03-02T00:48:19;1.97;;;1.23;;
10851;SDS011;5479;52.046;6.314;2024-03-02T00:50:49;2.43;;;1.70;;
10851;SDS011;5479;52.046;6.314;2024-03-02T00:53:18;3.33;;;1.60;;
10851;SDS011;5479;52.046;6.314;2024-03-02T00:55:49;2.40;;;1.57;;
10851;SDS011;5479;52.046;6.314;2024-03-02T00:58:16;2.33;;;1.70;;
10851;SDS011;5479;52.046;6.314;2024-03-02T01:00:44;4.40;;;1.60;;
10851;SDS011;5479;52.046;6.314;2024-03-02T01:03:12;3.80;;;1.50;;
10851;SDS011;5479;52.046;6.314;2024-03-02T01:05:40;2.90;;;1.50;;
10851;SDS011;5479;52.046;6.314;2024-03-02T01:08:08;3.03;;;1.43;;
10851;SDS011;5479;52.046;6.314;2024-03-02T01:10:36;3.13;;;1.73;;
10851;SDS011;5479;52.046;6.314;2024-03-02T01:13:05;4.17;;;1.80;;
10851;SDS011;5479;52.046;6.314;2024-03-02T01:15:33;3.13;;;1.80;;
10851;SDS011;5479;52.046;6.314;2024-03-02T01:18:00;4.80;;;1.90;;
10851;SDS011;5479;52.046;6.314;2024-03-02T01:20:28;4.53;;;1.70;;
10851;SDS011;5479;52.046;6.314;2024-03-02T01:22:56;2.77;;;1.30;;
10851;SDS011;5479;52.046;6.314;2024-03-02T01:25:23;3.57;;;1.53;;
10851;SDS011;5479;52.046;6.314;2024-03-02T01:27:51;4.40;;;1.70;;
10851;SDS011;5479;52.046;6.314;2024-03-02T01:30:20;3.13;;;1.67;;
10851;SDS011;5479;52.046;6.314;2024-03-02T01:32:48;3.27;;;1.60;;
10851;SDS011;5479;52.046;6.314;2024-03-02T01:35:15;1.93;;;1.40;;
10851;SDS011;5479;52.046;6.314;2024-03-02T01:37:43;3.70;;;1.60;;
10851;SDS011;5479;52.046;6.314;2024-03-02T01:40:11;3.90;;;1.63;;
10851;SDS011;5479;52.046;6.314;2024-03-02T01:42:39;3.77;;;1.70;;
10851;SDS011;5479;52.046;6.314;2024-03-02T01:45:07;3.20;;;1.70;;
10851;SDS011;5479;52.046;6.314;2024-03-02T01:47:36;2.20;;;1.40;;
10851;SDS011;5479;52.046;6.314;2024-03-02T01:50:04;2.90;;;1.57;;
10851;SDS011;5479;52.046;6.314;2024-03-02T01:52:31;3.10;;;1.80;;
10851;SDS011;5479;52.046;6.314;2024-03-02T01:54:59;4.00;;;1.70;;
10851;SDS011;5479;52.046;6.314;2024-03-02T01:57:27;4.73;;;1.80;;
10851;SDS011;5479;52.046;6.314;2024-03-02T01:59:54;3.30;;;1.60;;
10851;SDS011;5479;52.046;6.314;2024-03-02T02:02:22;3.00;;;1.50;;
10851;SDS011;5479;52.046;6.314;2024-03-02T02:04:51;2.10;;;1.30;;
10851;SDS011;5479;52.046;6.314;2024-03-02T02:07:19;4.10;;;1.67;;
10851;SDS011;5479;52.046;6.314;2024-03-02T02:09:47;2.80;;;1.50;;
10851;SDS011;5479;52.046;6.314;2024-03-02T02:12:14;3.27;;;1.60;;
10851;SDS011;5479;52.046;6.314;2024-03-02T02:14:46;2.23;;;1.50;;
10851;SDS011;5479;52.046;6.314;2024-03-02T02:17:14;3.40;;;1.70;;
10851;SDS011;5479;52.046;6.314;2024-03-02T02:19:42;4.33;;;1.57;;
10851;SDS011;5479;52.046;6.314;2024-03-02T02:22:11;3.57;;;1.70;;
10851;SDS011;5479;52.046;6.314;2024-03-02T02:24:39;4.10;;;1.83;;
10851;SDS011;5479;52.046;6.314;2024-03-02T02:27:07;3.93;;;1.70;;
10851;SDS011;5479;52.046;6.314;2024-03-02T02:29:35;2.30;;;1.47;;
10851;SDS011;5479;52.046;6.314;2024-03-02T02:32:03;3.17;;;1.60;;
10851;SDS011;5479;52.046;6.314;2024-03-02T02:34:30;3.23;;;1.60;;
10851;SDS011;5479;52.046;6.314;2024-03-02T02:36:58;2.77;;;1.40;;
10851;SDS011;5479;52.046;6.314;2024-03-02T02:39:27;2.03;;;1.43;;
10851;SDS011;5479;52.046;6.314;2024-03-02T02:41:54;2.43;;;1.30;;
10851;SDS011;5479;52.046;6.314;2024-03-02T02:44:22;3.23;;;1.50;;
10851;SDS011;5479;52.046;6.314;2024-03-02T02:46:50;2.63;;;1.33;;
10851;SDS011;5479;52.046;6.314;2024-03-02T02:49:18;1.60;;;1.00;;
10851;SDS011;5479;52.046;6.314;2024-03-02T02:51:45;1.13;;;0.80;;
10851;SDS011;5479;52.046;6.314;2024-03-02T02:54:14;2.20;;;1.20;;
10851;SDS011;5479;52.046;6.314;2024-03-02T02:56:43;1.80;;;1.13;;
10851;SDS011;5479;52.046;6.314;2024-03-02T02:59:10;1.27;;;1.00;;
10851;SDS011;5479;52.046;6.314;2024-03-02T03:01:38;1.50;;;0.83;;
10851;SDS011;5479;52.046;6.314;2024-03-02T03:04:06;1.67;;;0.80;;
10851;SDS011;5479;52.046;6.314;2024-03-02T03:06:33;2.63;;;0.97;;
10851;SDS011;5479;52.046;6.314;2024-03-02T03:09:01;2.13;;;0.90;;
10851;SDS011;5479;52.046;6.314;2024-03-02T03:11:29;2.10;;;0.80;;
10851;SDS011;5479;52.046;6.314;2024-03-02T03:14:00;1.00;;;0.60;;
10851;SDS011;5479;52.046;6.314;2024-03-02T03:16:28;0.50;;;0.50;;
10851;SDS011;5479;52.046;6.314;2024-03-02T03:18:55;3.30;;;0.97;;
10851;SDS011;5479;52.046;6.314;2024-03-02T03:21:23;2.30;;;0.97;;
10851;SDS011;5479;52.046;6.314;2024-03-02T03:23:51;1.90;;;0.93;;
10851;SDS011;5479;52.046;6.314;2024-03-02T03:26:19;1.30;;;0.80;;
10851;SDS011;5479;52.046;6.314;2024-03-02T03:28:46;1.57;;;0.80;;
10851;SDS011;5479;52.046;6.314;2024-03-02T03:31:15;0.90;;;0.70;;
10851;SDS011;5479;52.046;6.314;2024-03-02T03:33:43;1.30;;;0.73;;
10851;SDS011;5479;52.046;6.314;2024-03-02T03:36:11;1.57;;;0.90;;
10851;SDS011;5479;52.046;6.314;2024-03-02T03:38:38;0.60;;;0.50;;
10851;SDS011;5479;52.046;6.314;2024-03-02T03:41:06;2.80;;;0.80;;
10851;SDS011;5479;52.046;6.314;2024-03-02T03:43:33;1.53;;;0.87;;
10851;SDS011;5479;52.046;6.314;2024-03-02T03:46:01;0.90;;;0.70;;
10851;SDS011;5479;52.046;6.314;2024-03-02T03:48:30;2.13;;;0.70;;
10851;SDS011;5479;52.046;6.314;2024-03-02T03:50:58;1.30;;;0.67;;
10851;SDS011;5479;52.046;6.314;2024-03-02T03:53:26;1.57;;;0.70;;
10851;SDS011;5479;52.046;6.314;2024-03-02T03:55:54;0.77;;;0.70;;
10851;SDS011;5479;52.046;6.314;2024-03-02T03:58:21;0.67;;;0.57;;
10851;SDS011;5479;52.046;6.314;2024-03-02T04:00:49;0.60;;;0.47;;
10851;SDS011;5479;52.046;6.314;2024-03-02T04:03:17;1.17;;;0.77;;
10851;SDS011;5479;52.046;6.314;2024-03-02T04:05:45;1.53;;;0.80;;
10851;SDS011;5479;52.046;6.314;2024-03-02T04:08:13;1.43;;;0.70;;
10851;SDS011;5479;52.046;6.314;2024-03-02T04:10:41;2.10;;;0.83;;
10851;SDS011;5479;52.046;6.314;2024-03-02T04:13:08;1.20;;;0.60;;
10851;SDS011;5479;52.046;6.314;2024-03-02T04:15:36;0.93;;;0.40;;
10851;SDS011;5479;52.046;6.314;2024-03-02T04:18:04;0.67;;;0.60;;
10851;SDS011;5479;52.046;6.314;2024-03-02T04:20:32;0.97;;;0.70;;
10851;SDS011;5479;52.046;6.314;2024-03-02T04:23:01;1.63;;;0.33;;
10851;SDS011;5479;52.046;6.314;2024-03-02T04:25:28;1.13;;;0.50;;
10851;SDS011;5479;52.046;6.314;2024-03-02T04:27:56;0.93;;;0.50;;
10851;SDS011;5479;52.046;6.314;2024-03-02T04:30:24;0.87;;;0.43;;
10851;SDS011;5479;52.046;6.314;2024-03-02T04:32:53;1.77;;;0.53;;
10851;SDS011;5479;52.046;6.314;2024-03-02T04:35:20;1.37;;;0.30;;
10851;SDS011;5479;52.046;6.314;2024-03-02T04:37:48;1.63;;;0.60;;
10851;SDS011;5479;52.046;6.314;2024-03-02T04:40:17;1.70;;;0.70;;
10851;SDS011;5479;52.046;6.314;2024-03-02T04:42:45;1.00;;;0.30;;
10851;SDS011;5479;52.046;6.314;2024-03-02T04:45:12;0.60;;;0.60;;
10851;SDS011;5479;52.046;6.314;2024-03-02T04:47:40;0.83;;;0.40;;
10851;SDS011;5479;52.046;6.314;2024-03-02T04:50:08;0.37;;;0.30;;
10851;SDS011;5479;52.046;6.314;2024-03-02T04:52:35;0.83;;;0.57;;
10851;SDS011;5479;52.046;6.314;2024-03-02T04:55:03;0.77;;;0.50;;
10851;SDS011;5479;52.046;6.314;2024-03-02T04:57:47;0.70;;;0.53;;
10851;SDS011;5479;52.046;6.314;2024-03-02T05:00:17;0.53;;;0.30;;
10851;SDS011;5479;52.046;6.314;2024-03-02T05:02:45;1.13;;;0.40;;
10851;SDS011;5479;52.046;6.314;2024-03-02T05:05:17;1.73;;;0.50;;
10851;SDS011;5479;52.046;6.314;2024-03-02T05:07:45;0.90;;;0.50;;
10851;SDS011;5479;52.046;6.314;2024-03-02T05:10:13;0.77;;;0.40;;
10851;SDS011;5479;52.046;6.314;2024-03-02T05:12:42;1.53;;;0.50;;
10851;SDS011;5479;52.046;6.314;2024-03-02T05:15:27;0.37;;;0.37;;
10851;SDS011;5479;52.046;6.314;2024-03-02T05:17:55;0.77;;;0.33;;
10851;SDS011;5479;52.046;6.314;2024-03-02T05:20:23;1.03;;;0.50;;
10851;SDS011;5479;52.046;6.314;2024-03-02T05:22:51;0.80;;;0.60;;
10851;SDS011;5479;52.046;6.314;2024-03-02T05:25:19;0.63;;;0.30;;
10851;SDS011;5479;52.046;6.314;2024-03-02T05:27:46;1.17;;;0.50;;
10851;SDS011;5479;52.046;6.314;2024-03-02T05:30:14;1.00;;;0.50;;
10851;SDS011;5479;52.046;6.314;2024-03-02T05:32:43;0.83;;;0.40;;
10851;SDS011;5479;52.046;6.314;2024-03-02T05:35:11;0.97;;;0.30;;
10851;SDS011;5479;52.046;6.314;2024-03-02T05:37:39;1.30;;;0.50;;
10851;SDS011;5479;52.046;6.314;2024-03-02T05:40:07;1.17;;;0.43;;
10851;SDS011;5479;52.046;6.314;2024-03-02T05:42:35;0.87;;;0.23;;
10851;SDS011;5479;52.046;6.314;2024-03-02T05:45:03;1.17;;;0.57;;
10851;SDS011;5479;52.046;6.314;2024-03-02T05:47:31;0.47;;;0.30;;
10851;SDS011;5479;52.046;6.314;2024-03-02T05:50:01;0.93;;;0.40;;
10851;SDS011;5479;52.046;6.314;2024-03-02T05:52:30;0.60;;;0.30;;
10851;SDS011;5479;52.046;6.314;2024-03-02T05:54:57;1.23;;;0.43;;
10851;SDS011;5479;52.046;6.314;2024-03-02T05:57:25;1.60;;;0.30;;
10851;SDS011;5479;52.046;6.314;2024-03-02T06:00:11;2.30;;;0.50;;
10851;SDS011;5479;52.046;6.314;2024-03-02T06:02:39;0.80;;;0.50;;
10851;SDS011;5479;52.046;6.314;2024-03-02T06:05:09;1.77;;;0.70;;
10851;SDS011;5479;52.046;6.314;2024-03-02T06:07:36;0.57;;;0.57;;
10851;SDS011;5479;52.046;6.314;2024-03-02T06:10:05;0.90;;;0.43;;
10851;SDS011;5479;52.046;6.314;2024-03-02T06:12:33;0.63;;;0.40;;
10851;SDS011;5479;52.046;6.314;2024-03-02T06:15:01;2.30;;;0.50;;
10851;SDS011;5479;52.046;6.314;2024-03-02T06:17:30;1.23;;;0.30;;
10851;SDS011;5479;52.046;6.314;2024-03-02T06:19:59;0.10;;;0.10;;
10851;SDS011;5479;52.046;6.314;2024-03-02T06:22:28;1.60;;;0.60;;
10851;SDS011;5479;52.046;6.314;2024-03-02T06:24:56;0.30;;;0.30;;
10851;SDS011;5479;52.046;6.314;2024-03-02T06:27:23;1.13;;;0.70;;
10851;SDS011;5479;52.046;6.314;2024-03-02T06:29:51;1.57;;;0.80;;
10851;SDS011;5479;52.046;6.314;2024-03-02T06:32:19;2.30;;;0.90;;
10851;SDS011;5479;52.046;6.314;2024-03-02T06:34:47;1.70;;;1.00;;
10851;SDS011;5479;52.046;6.314;2024-03-02T06:37:15;1.00;;;0.60;;
10851;SDS011;5479;52.046;6.314;2024-03-02T06:39:44;0.40;;;0.40;;
10851;SDS011;5479;52.046;6.314;2024-03-02T06:42:13;1.73;;;0.63;;
10851;SDS011;5479;52.046;6.314;2024-03-02T06:44:40;1.60;;;0.83;;
10851;SDS011;5479;52.046;6.314;2024-03-02T06:47:08;0.80;;;0.70;;
10851;SDS011;5479;52.046;6.314;2024-03-02T06:49:36;2.30;;;0.87;;
10851;SDS011;5479;52.046;6.314;2024-03-02T06:52:03;1.13;;;0.60;;
10851;SDS011;5479;52.046;6.314;2024-03-02T06:54:31;1.23;;;0.70;;
10851;SDS011;5479;52.046;6.314;2024-03-02T06:57:00;0.97;;;0.60;;
10851;SDS011;5479;52.046;6.314;2024-03-02T06:59:27;1.03;;;0.63;;
10851;SDS011;5479;52.046;6.314;2024-03-02T07:01:55;1.07;;;0.63;;
10851;SDS011;5479;52.046;6.314;2024-03-02T07:04:23;1.43;;;0.93;;
10851;SDS011;5479;52.046;6.314;2024-03-02T07:06:50;1.10;;;0.87;;
10851;SDS011;5479;52.046;6.314;2024-03-02T07:09:18;2.17;;;0.90;;
10851;SDS011;5479;52.046;6.314;2024-03-02T07:11:49;1.20;;;0.80;;
10851;SDS011;5479;52.046;6.314;2024-03-02T07:14:18;1.03;;;0.60;;
10851;SDS011;5479;52.046;6.314;2024-03-02T07:16:45;1.63;;;0.80;;
10851;SDS011;5479;52.046;6.314;2024-03-02T07:19:12;0.70;;;0.60;;
10851;SDS011;5479;52.046;6.314;2024-03-02T07:21:40;0.70;;;0.57;;
10851;SDS011;5479;52.046;6.314;2024-03-02T07:24:08;2.00;;;0.80;;
10851;SDS011;5479;52.046;6.314;2024-03-02T07:26:39;1.00;;;0.60;;
10851;SDS011;5479;52.046;6.314;2024-03-02T07:29:10;2.57;;;0.87;;
10851;SDS011;5479;52.046;6.314;2024-03-02T07:31:39;2.37;;;1.00;;
10851;SDS011;5479;52.046;6.314;2024-03-02T07:34:07;1.00;;;0.73;;
10851;SDS011;5479;52.046;6.314;2024-03-02T07:36:35;0.87;;;0.77;;
10851;SDS011;5479;52.046;6.314;2024-03-02T07:39:03;1.93;;;0.90;;
10851;SDS011;5479;52.046;6.314;2024-03-02T07:41:30;1.90;;;1.20;;
10851;SDS011;5479;52.046;6.314;2024-03-02T07:43:59;1.63;;;1.03;;
10851;SDS011;5479;52.046;6.314;2024-03-02T07:46:27;1.83;;;1.10;;
10851;SDS011;5479;52.046;6.314;2024-03-02T07:48:56;1.63;;;1.00;;
10851;SDS011;5479;52.046;6.314;2024-03-02T07:51:24;1.57;;;1.00;;
10851;SDS011;5479;52.046;6.314;2024-03-02T07:53:52;2.17;;;0.97;;
10851;SDS011;5479;52.046;6.314;2024-03-02T07:56:20;1.87;;;1.13;;
10851;SDS011;5479;52.046;6.314;2024-03-02T07:58:48;1.30;;;0.90;;
10851;SDS011;5479;52.046;6.314;2024-03-02T08:01:16;2.10;;;1.10;;
10851;SDS011;5479;52.046;6.314;2024-03-02T08:03:44;1.77;;;0.90;;
10851;SDS011;5479;52.046;6.314;2024-03-02T08:06:15;1.37;;;0.83;;
10851;SDS011;5479;52.046;6.314;2024-03-02T08:08:43;1.17;;;0.93;;
10851;SDS011;5479;52.046;6.314;2024-03-02T08:11:11;2.20;;;1.00;;
10851;SDS011;5479;52.046;6.314;2024-03-02T08:13:38;1.80;;;0.87;;
10851;SDS011;5479;52.046;6.314;2024-03-02T08:16:06;1.40;;;0.93;;
10851;SDS011;5479;52.046;6.314;2024-03-02T08:18:35;2.97;;;1.07;;
10851;SDS011;5479;52.046;6.314;2024-03-02T08:21:03;2.13;;;1.00;;
10851;SDS011;5479;52.046;6.314;2024-03-02T08:23:32;2.27;;;0.90;;
10851;SDS011;5479;52.046;6.314;2024-03-02T08:26:00;1.90;;;1.10;;
10851;SDS011;5479;52.046;6.314;2024-03-02T08:28:28;2.00;;;0.77;;
10851;SDS011;5479;52.046;6.314;2024-03-02T08:30:56;1.80;;;0.90;;
10851;SDS011;5479;52.046;6.314;2024-03-02T08:33:23;1.73;;;0.80;;
10851;SDS011;5479;52.046;6.314;2024-03-02T08:35:52;1.90;;;1.07;;
10851;SDS011;5479;52.046;6.314;2024-03-02T08:38:19;2.20;;;0.90;;
10851;SDS011;5479;52.046;6.314;2024-03-02T08:40:49;2.20;;;1.00;;
10851;SDS011;5479;52.046;6.314;2024-03-02T08:43:17;2.40;;;1.07;;
10851;SDS011;5479;52.046;6.314;2024-03-02T08:45:45;2.07;;;1.10;;
10851;SDS011;5479;52.046;6.314;2024-03-02T08:48:13;2.13;;;1.20;;
10851;SDS011;5479;52.046;6.314;2024-03-02T08:50:41;1.57;;;0.90;;
10851;SDS011;5479;52.046;6.314;2024-03-02T08:53:07;4.03;;;1.13;;
10851;SDS011;5479;52.046;6.314;2024-03-02T08:55:35;1.73;;;1.00;;
10851;SDS011;5479;52.046;6.314;2024-03-02T08:58:04;1.80;;;1.00;;
10851;SDS011;5479;52.046;6.314;2024-03-02T09:00:32;2.40;;;1.07;;
10851;SDS011;5479;52.046;6.314;2024-03-02T09:03:01;1.83;;;1.00;;
10851;SDS011;5479;52.046;6.314;2024-03-02T09:05:28;2.53;;;0.80;;
10851;SDS011;5479;52.046;6.314;2024-03-02T09:07:56;1.67;;;0.80;;
10851;SDS011;5479;52.046;6.314;2024-03-02T09:10:24;1.57;;;0.80;;
10851;SDS011;5479;52.046;6.314;2024-03-02T09:12:51;2.03;;;1.00;;
10851;SDS011;5479;52.046;6.314;2024-03-02T09:15:21;3.43;;;1.27;;
10851;SDS011;5479;52.046;6.314;2024-03-02T09:17:51;2.27;;;1.17;;
10851;SDS011;5479;52.046;6.314;2024-03-02T09:20:19;2.53;;;1.10;;
10851;SDS011;5479;52.046;6.314;2024-03-02T09:22:46;4.33;;;1.17;;
10851;SDS011;5479;52.046;6.314;2024-03-02T09:25:15;0.80;;;0.80;;
10851;SDS011;5479;52.046;6.314;2024-03-02T09:27:42;3.00;;;1.40;;
10851;SDS011;5479;52.046;6.314;2024-03-02T09:30:10;2.67;;;1.30;;
10851;SDS011;5479;52.046;6.314;2024-03-02T09:32:41;1.70;;;1.00;;
10851;SDS011;5479;52.046;6.314;2024-03-02T09:35:09;3.03;;;1.23;;
10851;SDS011;5479;52.046;6.314;2024-03-02T09:37:38;5.07;;;1.17;;
10851;SDS011;5479;52.046;6.314;2024-03-02T09:40:06;2.87;;;1.07;;
10851;SDS011;5479;52.046;6.314;2024-03-02T09:42:34;1.93;;;1.00;;
10851;SDS011;5479;52.046;6.314;2024-03-02T09:45:02;4.73;;;1.43;;
10851;SDS011;5479;52.046;6.314;2024-03-02T09:47:29;4.73;;;1.23;;
10851;SDS011;5479;52.046;6.314;2024-03-02T09:49:58;2.27;;;1.07;;
10851;SDS011;5479;52.046;6.314;2024-03-02T09:52:26;3.10;;;1.20;;
10851;SDS011;5479;52.046;6.314;2024-03-02T09:54:54;3.50;;;0.90;;
10851;SDS011;5479;52.046;6.314;2024-03-02T09:57:22;4.30;;;1.50;;
10851;SDS011;5479;52.046;6.314;2024-03-02T09:59:49;3.23;;;1.17;;
10851;SDS011;5479;52.046;6.314;2024-03-02T10:02:17;3.33;;;1.40;;
10851;SDS011;5479;52.046;6.314;2024-03-02T10:04:45;2.87;;;1.10;;
10851;SDS011;5479;52.046;6.314;2024-03-02T10:07:15;4.30;;;1.40;;
10851;SDS011;5479;52.046;6.314;2024-03-02T10:09:43;2.47;;;1.10;;
10851;SDS011;5479;52.046;6.314;2024-03-02T10:12:11;2.60;;;1.13;;
10851;SDS011;5479;52.046;6.314;2024-03-02T10:14:39;3.73;;;1.30;;
10851;SDS011;5479;52.046;6.314;2024-03-02T10:17:07;3.70;;;1.40;;
10851;SDS011;5479;52.046;6.314;2024-03-02T10:19:35;3.37;;;1.00;;
10851;SDS011;5479;52.046;6.314;2024-03-02T10:22:03;3.13;;;1.10;;
10851;SDS011;5479;52.046;6.314;2024-03-02T10:24:36;3.17;;;1.17;;
10851;SDS011;5479;52.046;6.314;2024-03-02T10:27:08;2.50;;;1.10;;
10851;SDS011;5479;52.046;6.314;2024-03-02T10:29:37;3.93;;;1.57;;
10851;SDS011;5479;52.046;6.314;2024-03-02T10:32:05;2.10;;;1.30;;
10851;SDS011;5479;52.046;6.314;2024-03-02T10:34:33;3.10;;;1.20;;
10851;SDS011;5479;52.046;6.314;2024-03-02T10:37:01;2.37;;;1.10;;
10851;SDS011;5479;52.046;6.314;2024-03-02T10:39:31;3.27;;;1.30;;
10851;SDS011;5479;52.046;6.314;2024-03-02T10:42:00;1.57;;;0.93;;
10851;SDS011;5479;52.046;6.314;2024-03-02T10:44:30;5.13;;;1.40;;
10851;SDS011;5479;52.046;6.314;2024-03-02T10:46:58;2.20;;;1.10;;
10851;SDS011;5479;52.046;6.314;2024-03-02T10:49:27;2.30;;;1.10;;
10851;SDS011;5479;52.046;6.314;2024-03-02T10:51:56;3.10;;;1.10;;
10851;SDS011;5479;52.046;6.314;2024-03-02T10:54:24;2.00;;;1.13;;
10851;SDS011;5479;52.046;6.314;2024-03-02T10:56:55;3.63;;;1.40;;
10851;SDS011;5479;52.046;6.314;2024-03-02T10:59:32;1.77;;;1.23;;
10851;SDS011;5479;52.046;6.314;2024-03-02T11:02:01;5.93;;;1.40;;
10851;SDS011;5479;52.046;6.314;2024-03-02T11:04:30;4.13;;;1.40;;
10851;SDS011;5479;52.046;6.314;2024-03-02T11:06:59;2.50;;;1.10;;
10851;SDS011;5479;52.046;6.314;2024-03-02T11:09:27;1.83;;;0.90;;
10851;SDS011;5479;52.046;6.314;2024-03-02T11:11:58;3.20;;;1.17;;
10851;SDS011;5479;52.046;6.314;2024-03-02T11:14:28;2.87;;;0.87;;
10851;SDS011;5479;52.046;6.314;2024-03-02T11:16:58;2.67;;;1.00;;
10851;SDS011;5479;52.046;6.314;2024-03-02T11:19:27;2.23;;;0.90;;
10851;SDS011;5479;52.046;6.314;2024-03-02T11:21:55;3.90;;;1.30;;
10851;SDS011;5479;52.046;6.314;2024-03-02T11:24:30;2.50;;;1.03;;
10851;SDS011;5479;52.046;6.314;2024-03-02T11:26:59;2.30;;;1.10;;
10851;SDS011;5479;52.046;6.314;2024-03-02T11:29:43;2.70;;;1.30;;
10851;SDS011;5479;52.046;6.314;2024-03-02T11:32:16;2.63;;;0.97;;
10851;SDS011;5479;52.046;6.314;2024-03-02T11:34:45;2.60;;;1.30;;
10851;SDS011;5479;52.046;6.314;2024-03-02T11:37:14;3.53;;;1.40;;
10851;SDS011;5479;52.046;6.314;2024-03-02T11:39:42;1.90;;;1.23;;
10851;SDS011;5479;52.046;6.314;2024-03-02T11:42:09;2.73;;;1.23;;
10851;SDS011;5479;52.046;6.314;2024-03-02T11:44:38;2.37;;;1.30;;
10851;SDS011;5479;52.046;6.314;2024-03-02T11:47:07;4.50;;;1.30;;
10851;SDS011;5479;52.046;6.314;2024-03-02T11:49:39;1.97;;;1.47;;
10851;SDS011;5479;52.046;6.314;2024-03-02T11:52:08;3.23;;;1.50;;
10851;SDS011;5479;52.046;6.314;2024-03-02T11:54:39;2.40;;;1.20;;
10851;SDS011;5479;52.046;6.314;2024-03-02T11:57:14;2.73;;;1.30;;
10851;SDS011;5479;52.046;6.314;2024-03-02T11:59:42;3.63;;;1.27;;
10851;SDS011;5479;52.046;6.314;2024-03-02T12:02:14;5.27;;;1.60;;
10851;SDS011;5479;52.046;6.314;2024-03-02T12:04:43;2.20;;;1.40;;
10851;SDS011;5479;52.046;6.314;2024-03-02T12:07:13;2.53;;;1.27;;
10851;SDS011;5479;52.046;6.314;2024-03-02T12:09:45;2.50;;;1.17;;
10851;SDS011;5479;52.046;6.314;2024-03-02T12:12:13;3.97;;;1.57;;
10851;SDS011;5479;52.046;6.314;2024-03-02T12:14:50;2.73;;;1.50;;
10851;SDS011;5479;52.046;6.314;2024-03-02T12:17:18;3.03;;;1.50;;
10851;SDS011;5479;52.046;6.314;2024-03-02T12:19:47;3.43;;;1.67;;
10851;SDS011;5479;52.046;6.314;2024-03-02T12:22:15;2.80;;;1.43;;
10851;SDS011;5479;52.046;6.314;2024-03-02T12:24:43;3.57;;;1.50;;
10851;SDS011;5479;52.046;6.314;2024-03-02T12:27:11;2.13;;;1.40;;
10851;SDS011;5479;52.046;6.314;2024-03-02T12:29:39;2.57;;;1.43;;
10851;SDS011;5479;52.046;6.314;2024-03-02T12:32:07;2.87;;;1.60;;
10851;SDS011;5479;52.046;6.314;2024-03-02T12:34:37;3.93;;;1.80;;
10851;SDS011;5479;52.046;6.314;2024-03-02T12:37:06;4.93;;;1.73;;
10851;SDS011;5479;52.046;6.314;2024-03-02T12:39:34;2.97;;;1.43;;
10851;SDS011;5479;52.046;6.314;2024-03-02T12:42:02;4.13;;;1.47;;
10851;SDS011;5479;52.046;6.314;2024-03-02T12:44:30;2.97;;;1.43;;
10851;SDS011;5479;52.046;6.314;2024-03-02T12:46:57;3.23;;;1.43;;
10851;SDS011;5479;52.046;6.314;2024-03-02T12:49:25;3.27;;;1.40;;
10851;SDS011;5479;52.046;6.314;2024-03-02T12:51:55;3.13;;;1.50;;
10851;SDS011;5479;52.046;6.314;2024-03-02T12:54:28;2.07;;;1.03;;
10851;SDS011;5479;52.046;6.314;2024-03-02T12:56:56;1.43;;;1.00;;
10851;SDS011;5479;52.046;6.314;2024-03-02T12:59:24;2.40;;;1.13;;
10851;SDS011;5479;52.046;6.314;2024-03-02T13:01:53;1.67;;;1.00;;
10851;SDS011;5479;52.046;6.314;2024-03-02T13:04:24;2.00;;;1.00;;
10851;SDS011;5479;52.046;6.314;2024-03-02T13:06:52;3.10;;;1.20;;
10851;SDS011;5479;52.046;6.314;2024-03-02T13:09:19;2.87;;;1.30;;
10851;SDS011;5479;52.046;6.314;2024-03-02T13:11:49;3.63;;;1.10;;
10851;SDS011;5479;52.046;6.314;2024-03-02T13:14:16;4.17;;;1.10;;
10851;SDS011;5479;52.046;6.314;2024-03-02T13:16:44;2.47;;;1.20;;
10851;SDS011;5479;52.046;6.314;2024-03-02T13:19:13;1.90;;;0.93;;
10851;SDS011;5479;52.046;6.314;2024-03-02T13:21:41;3.33;;;1.27;;
10851;SDS011;5479;52.046;6.314;2024-03-02T13:24:08;1.40;;;1.10;;
10851;SDS011;5479;52.046;6.314;2024-03-02T13:26:36;2.53;;;1.20;;
10851;SDS011;5479;52.046;6.314;2024-03-02T13:29:05;2.67;;;1.53;;
10851;SDS011;5479;52.046;6.314;2024-03-02T13:31:34;3.33;;;1.30;;
10851;SDS011;5479;52.046;6.314;2024-03-02T13:34:02;4.63;;;1.30;;
10851;SDS011;5479;52.046;6.314;2024-03-02T13:36:29;2.93;;;1.33;;
10851;SDS011;5479;52.046;6.314;2024-03-02T13:38:57;2.40;;;1.27;;
10851;SDS011;5479;52.046;6.314;2024-03-02T13:41:26;3.40;;;1.13;;
10851;SDS011;5479;52.046;6.314;2024-03-02T13:43:54;2.57;;;1.43;;
10851;SDS011;5479;52.046;6.314;2024-03-02T13:46:23;2.10;;;1.30;;
10851;SDS011;5479;52.046;6.314;2024-03-02T13:48:50;3.20;;;1.50;;
10851;SDS011;5479;52.046;6.314;2024-03-02T13:51:18;3.77;;;1.70;;
10851;SDS011;5479;52.046;6.314;2024-03-02T13:53:46;3.77;;;1.57;;
10851;SDS011;5479;52.046;6.314;2024-03-02T13:56:14;4.37;;;1.70;;
10851;SDS011;5479;52.046;6.314;2024-03-02T13:58:42;3.73;;;1.40;;
10851;SDS011;5479;52.046;6.314;2024-03-02T14:01:10;3.57;;;1.60;;
10851;SDS011;5479;52.046;6.314;2024-03-02T14:03:39;2.60;;;1.50;;
10851;SDS011;5479;52.046;6.314;2024-03-02T14:06:06;1.57;;;1.20;;
10851;SDS011;5479;52.046;6.314;2024-03-02T14:08:34;2.77;;;1.50;;
10851;SDS011;5479;52.046;6.314;2024-03-02T14:11:02;4.10;;;1.60;;
10851;SDS011;5479;52.046;6.314;2024-03-02T14:13:30;4.47;;;1.87;;
10851;SDS011;5479;52.046;6.314;2024-03-02T14:15:58;5.07;;;1.40;;
10851;SDS011;5479;52.046;6.314;2024-03-02T14:18:26;3.50;;;1.73;;
10851;SDS011;5479;52.046;6.314;2024-03-02T14:20:55;3.80;;;1.70;;
10851;SDS011;5479;52.046;6.314;2024-03-02T14:23:23;2.77;;;1.50;;
10851;SDS011;5479;52.046;6.314;2024-03-02T14:25:52;3.83;;;1.50;;
10851;SDS011;5479;52.046;6.314;2024-03-02T14:28:21;3.13;;;1.77;;
10851;SDS011;5479;52.046;6.314;2024-03-02T14:30:51;4.37;;;1.70;;
10851;SDS011;5479;52.046;6.314;2024-03-02T14:33:18;3.63;;;1.80;;
10851;SDS011;5479;52.046;6.314;2024-03-02T14:35:46;8.00;;;1.90;;
10851;SDS011;5479;52.046;6.314;2024-03-02T14:38:16;4.47;;;1.70;;
10851;SDS011;5479;52.046;6.314;2024-03-02T14:40:44;1.83;;;1.43;;
10851;SDS011;5479;52.046;6.314;2024-03-02T14:43:12;3.53;;;1.70;;
10851;SDS011;5479;52.046;6.314;2024-03-02T14:45:39;7.50;;;1.90;;
10851;SDS011;5479;52.046;6.314;2024-03-02T14:48:07;5.63;;;2.40;;
10851;SDS011;5479;52.046;6.314;2024-03-02T14:50:35;2.93;;;1.90;;
10851;SDS011;5479;52.046;6.314;2024-03-02T14:53:03;3.33;;;1.70;;
10851;SDS011;5479;52.046;6.314;2024-03-02T14:55:34;5.33;;;2.27;;
10851;SDS011;5479;52.046;6.314;2024-03-02T14:58:03;3.83;;;1.93;;
10851;SDS011;5479;52.046;6.314;2024-03-02T15:00:31;3.87;;;1.73;;
10851;SDS011;5479;52.046;6.314;2024-03-02T15:02:59;4.37;;;2.07;;
10851;SDS011;5479;52.046;6.314;2024-03-02T15:05:28;4.53;;;2.20;;
10851;SDS011;5479;52.046;6.314;2024-03-02T15:07:56;4.57;;;2.00;;